sensor_id;sensor_type;location;lat;lon;timestamp;P1;durP1;ratioP1;P2;durP2;ratioP2
23140;SDS011;11739;54.750;9.124;2022-10-16T00:00:20;8.80;;;3.17;;
23140;SDS011;11739;54.750;9.124;2022-10-16T00:02:46;9.70;;;3.03;;
23140;SDS011;11739;54.750;9.124;2022-10-16T00:05:13;9.95;;;2.90;;
23140;SDS011;11739;54.750;9.124;2022-10-16T00:07:39;9.80;;;3.10;;
23140;SDS011;11739;54.750;9.124;2022-10-16T00:10:06;9.57;;;3.38;;
23140;SDS011;11739;54.750;9.124;2022-10-16T00:12:33;10.10;;;2.85;;
23140;SDS011;11739;54.750;9.124;2022-10-16T00:15:00;10.25;;;3.30;;
23140;SDS011;11739;54.750;9.124;2022-10-16T00:17:26;8.70;;;2.92;;
23140;SDS011;11739;54.750;9.124;2022-10-16T00:19:53;8.32;;;2.92;;
23140;SDS011;11739;54.750;9.124;2022-10-16T00:22:19;8.23;;;2.50;;
23140;SDS011;11739;54.750;9.124;2022-10-16T00:24:46;6.82;;;2.72;;
23140;SDS011;11739;54.750;9.124;2022-10-16T00:27:12;10.43;;;2.90;;
23140;SDS011;11739;54.750;9.124;2022-10-16T00:29:39;12.43;;;3.25;;
23140;SDS011;11739;54.750;9.124;2022-10-16T00:32:05;10.93;;;3.25;;
23140;SDS011;11739;54.750;9.124;2022-10-16T00:34:32;5.43;;;2.28;;
23140;SDS011;11739;54.750;9.124;2022-10-16T00:36:58;8.13;;;2.63;;
23140;SDS011;11739;54.750;9.124;2022-10-16T00:39:25;8.43;;;2.83;;
23140;SDS011;11739;54.750;9.124;2022-10-16T00:41:51;10.52;;;2.70;;
23140;SDS011;11739;54.750;9.124;2022-10-16T00:47:13;8.90;;;2.63;;
23140;SDS011;11739;54.750;9.124;2022-10-16T00:49:44;11.87;;;2.90;;
23140;SDS011;11739;54.750;9.124;2022-10-16T00:52:10;9.93;;;3.15;;
23140;SDS011;11739;54.750;9.124;2022-10-16T00:54:38;7.30;;;3.00;;
23140;SDS011;11739;54.750;9.124;2022-10-16T00:57:05;11.18;;;2.50;;
23140;SDS011;11739;54.750;9.124;2022-10-16T00:59:34;9.82;;;2.50;;
23140;SDS011;11739;54.750;9.124;2022-10-16T01:02:03;7.85;;;2.22;;
23140;SDS011;11739;54.750;9.124;2022-10-16T01:04:32;9.43;;;2.83;;
23140;SDS011;11739;54.750;9.124;2022-10-16T01:15:45;7.72;;;2.65;;
23140;SDS011;11739;54.750;9.124;2022-10-16T01:20:42;8.23;;;2.42;;
23140;SDS011;11739;54.750;9.124;2022-10-16T01:23:19;8.68;;;2.55;;
23140;SDS011;11739;54.750;9.124;2022-10-16T01:26:07;9.88;;;2.40;;
23140;SDS011;11739;54.750;9.124;2022-10-16T01:28:45;9.38;;;2.58;;
23140;SDS011;11739;54.750;9.124;2022-10-16T01:31:17;10.90;;;2.70;;
23140;SDS011;11739;54.750;9.124;2022-10-16T01:33:45;5.15;;;2.22;;
23140;SDS011;11739;54.750;9.124;2022-10-16T01:36:15;10.18;;;2.50;;
23140;SDS011;11739;54.750;9.124;2022-10-16T01:38:44;5.05;;;2.35;;
23140;SDS011;11739;54.750;9.124;2022-10-16T01:41:15;6.03;;;2.33;;
23140;SDS011;11739;54.750;9.124;2022-10-16T01:43:45;9.40;;;2.63;;
23140;SDS011;11739;54.750;9.124;2022-10-16T01:46:12;6.72;;;2.53;;
23140;SDS011;11739;54.750;9.124;2022-10-16T01:48:40;8.73;;;2.97;;
23140;SDS011;11739;54.750;9.124;2022-10-16T01:51:08;11.95;;;2.78;;
23140;SDS011;11739;54.750;9.124;2022-10-16T01:53:36;10.13;;;2.63;;
23140;SDS011;11739;54.750;9.124;2022-10-16T01:56:04;7.95;;;2.30;;
23140;SDS011;11739;54.750;9.124;2022-10-16T01:58:33;11.82;;;3.22;;
23140;SDS011;11739;54.750;9.124;2022-10-16T02:01:02;8.75;;;3.03;;
23140;SDS011;11739;54.750;9.124;2022-10-16T02:03:30;9.85;;;2.53;;
23140;SDS011;11739;54.750;9.124;2022-10-16T02:05:58;8.27;;;2.80;;
23140;SDS011;11739;54.750;9.124;2022-10-16T02:08:25;11.73;;;3.00;;
23140;SDS011;11739;54.750;9.124;2022-10-16T02:10:55;12.88;;;2.95;;
23140;SDS011;11739;54.750;9.124;2022-10-16T02:13:26;7.90;;;2.90;;
23140;SDS011;11739;54.750;9.124;2022-10-16T02:15:58;5.80;;;2.75;;
23140;SDS011;11739;54.750;9.124;2022-10-16T02:18:26;10.95;;;2.58;;
23140;SDS011;11739;54.750;9.124;2022-10-16T02:20:56;9.48;;;2.90;;
23140;SDS011;11739;54.750;9.124;2022-10-16T02:23:45;10.35;;;2.78;;
23140;SDS011;11739;54.750;9.124;2022-10-16T02:26:42;12.27;;;3.53;;
23140;SDS011;11739;54.750;9.124;2022-10-16T02:29:12;7.20;;;2.53;;
23140;SDS011;11739;54.750;9.124;2022-10-16T02:31:43;9.75;;;2.97;;
23140;SDS011;11739;54.750;9.124;2022-10-16T02:34:13;10.75;;;3.15;;
23140;SDS011;11739;54.750;9.124;2022-10-16T02:36:40;8.52;;;2.65;;
23140;SDS011;11739;54.750;9.124;2022-10-16T02:39:08;10.30;;;3.10;;
23140;SDS011;11739;54.750;9.124;2022-10-16T02:41:35;11.32;;;2.92;;
23140;SDS011;11739;54.750;9.124;2022-10-16T02:44:02;7.45;;;2.88;;
23140;SDS011;11739;54.750;9.124;2022-10-16T02:46:29;10.13;;;2.67;;
23140;SDS011;11739;54.750;9.124;2022-10-16T02:48:55;7.85;;;2.47;;
23140;SDS011;11739;54.750;9.124;2022-10-16T02:51:22;10.00;;;2.45;;
23140;SDS011;11739;54.750;9.124;2022-10-16T02:53:48;8.15;;;2.30;;
23140;SDS011;11739;54.750;9.124;2022-10-16T02:56:14;9.60;;;2.90;;
23140;SDS011;11739;54.750;9.124;2022-10-16T02:58:41;10.23;;;2.33;;
23140;SDS011;11739;54.750;9.124;2022-10-16T03:01:08;8.70;;;2.80;;
23140;SDS011;11739;54.750;9.124;2022-10-16T03:03:34;9.18;;;2.65;;
23140;SDS011;11739;54.750;9.124;2022-10-16T03:06:01;7.00;;;2.53;;
23140;SDS011;11739;54.750;9.124;2022-10-16T03:08:27;9.07;;;2.80;;
23140;SDS011;11739;54.750;9.124;2022-10-16T03:10:54;6.35;;;2.50;;
23140;SDS011;11739;54.750;9.124;2022-10-16T03:13:21;8.52;;;2.83;;
23140;SDS011;11739;54.750;9.124;2022-10-16T03:15:47;8.60;;;2.50;;
23140;SDS011;11739;54.750;9.124;2022-10-16T03:18:14;9.18;;;2.92;;
23140;SDS011;11739;54.750;9.124;2022-10-16T03:20:42;10.73;;;2.58;;
23140;SDS011;11739;54.750;9.124;2022-10-16T03:23:09;9.98;;;2.33;;
23140;SDS011;11739;54.750;9.124;2022-10-16T03:25:35;11.77;;;3.03;;
23140;SDS011;11739;54.750;9.124;2022-10-16T03:28:02;8.52;;;2.40;;
23140;SDS011;11739;54.750;9.124;2022-10-16T03:30:29;8.50;;;3.05;;
23140;SDS011;11739;54.750;9.124;2022-10-16T03:32:55;8.07;;;2.70;;
23140;SDS011;11739;54.750;9.124;2022-10-16T03:35:22;9.50;;;2.60;;
23140;SDS011;11739;54.750;9.124;2022-10-16T03:37:49;10.55;;;3.13;;
23140;SDS011;11739;54.750;9.124;2022-10-16T03:40:16;10.13;;;2.58;;
23140;SDS011;11739;54.750;9.124;2022-10-16T03:42:43;8.20;;;2.97;;
23140;SDS011;11739;54.750;9.124;2022-10-16T03:45:10;6.85;;;2.45;;
23140;SDS011;11739;54.750;9.124;2022-10-16T03:47:37;8.63;;;2.42;;
23140;SDS011;11739;54.750;9.124;2022-10-16T03:50:04;9.63;;;2.55;;
23140;SDS011;11739;54.750;9.124;2022-10-16T03:52:31;10.70;;;2.38;;
23140;SDS011;11739;54.750;9.124;2022-10-16T03:54:58;8.07;;;2.03;;
23140;SDS011;11739;54.750;9.124;2022-10-16T03:57:25;8.73;;;2.60;;
23140;SDS011;11739;54.750;9.124;2022-10-16T03:59:52;7.30;;;2.97;;
23140;SDS011;11739;54.750;9.124;2022-10-16T04:02:18;7.25;;;2.30;;
23140;SDS011;11739;54.750;9.124;2022-10-16T04:04:45;9.38;;;2.58;;
23140;SDS011;11739;54.750;9.124;2022-10-16T04:07:11;11.18;;;2.72;;
23140;SDS011;11739;54.750;9.124;2022-10-16T04:09:43;8.68;;;2.35;;
23140;SDS011;11739;54.750;9.124;2022-10-16T04:12:10;7.57;;;2.35;;
23140;SDS011;11739;54.750;9.124;2022-10-16T04:14:36;11.00;;;2.50;;
23140;SDS011;11739;54.750;9.124;2022-10-16T04:17:03;7.93;;;2.13;;
23140;SDS011;11739;54.750;9.124;2022-10-16T04:19:29;8.02;;;2.30;;
23140;SDS011;11739;54.750;9.124;2022-10-16T04:21:56;6.47;;;2.10;;
23140;SDS011;11739;54.750;9.124;2022-10-16T04:24:22;6.43;;;2.30;;
23140;SDS011;11739;54.750;9.124;2022-10-16T04:26:49;9.50;;;2.88;;
23140;SDS011;11739;54.750;9.124;2022-10-16T04:29:15;13.30;;;2.40;;
23140;SDS011;11739;54.750;9.124;2022-10-16T04:31:42;7.53;;;2.42;;
23140;SDS011;11739;54.750;9.124;2022-10-16T04:34:08;5.15;;;2.10;;
23140;SDS011;11739;54.750;9.124;2022-10-16T04:36:35;10.02;;;2.40;;
23140;SDS011;11739;54.750;9.124;2022-10-16T04:39:01;7.57;;;2.28;;
23140;SDS011;11739;54.750;9.124;2022-10-16T04:41:28;9.98;;;2.72;;
23140;SDS011;11739;54.750;9.124;2022-10-16T04:43:54;12.77;;;2.42;;
23140;SDS011;11739;54.750;9.124;2022-10-16T04:46:21;13.95;;;2.38;;
23140;SDS011;11739;54.750;9.124;2022-10-16T04:48:47;7.13;;;1.83;;
23140;SDS011;11739;54.750;9.124;2022-10-16T04:51:14;7.53;;;2.40;;
23140;SDS011;11739;54.750;9.124;2022-10-16T04:53:40;13.95;;;2.78;;
23140;SDS011;11739;54.750;9.124;2022-10-16T04:56:06;9.73;;;2.58;;
23140;SDS011;11739;54.750;9.124;2022-10-16T04:58:33;6.82;;;2.17;;
23140;SDS011;11739;54.750;9.124;2022-10-16T05:00:59;9.10;;;2.70;;
23140;SDS011;11739;54.750;9.124;2022-10-16T05:03:26;8.52;;;2.20;;
23140;SDS011;11739;54.750;9.124;2022-10-16T05:05:52;10.18;;;2.72;;
23140;SDS011;11739;54.750;9.124;2022-10-16T05:08:19;10.40;;;2.40;;
23140;SDS011;11739;54.750;9.124;2022-10-16T05:10:46;7.20;;;2.35;;
23140;SDS011;11739;54.750;9.124;2022-10-16T05:13:12;7.28;;;2.20;;
23140;SDS011;11739;54.750;9.124;2022-10-16T05:15:39;9.65;;;2.17;;
23140;SDS011;11739;54.750;9.124;2022-10-16T05:18:05;7.28;;;2.25;;
23140;SDS011;11739;54.750;9.124;2022-10-16T05:20:32;6.13;;;2.15;;
23140;SDS011;11739;54.750;9.124;2022-10-16T05:22:58;8.48;;;2.25;;
23140;SDS011;11739;54.750;9.124;2022-10-16T05:25:25;6.65;;;2.70;;
23140;SDS011;11739;54.750;9.124;2022-10-16T05:27:51;9.50;;;2.55;;
23140;SDS011;11739;54.750;9.124;2022-10-16T05:30:18;10.25;;;2.40;;
23140;SDS011;11739;54.750;9.124;2022-10-16T05:32:48;8.80;;;2.45;;
23140;SDS011;11739;54.750;9.124;2022-10-16T05:35:16;7.20;;;2.08;;
23140;SDS011;11739;54.750;9.124;2022-10-16T05:37:43;7.65;;;2.15;;
23140;SDS011;11739;54.750;9.124;2022-10-16T05:40:12;6.53;;;2.33;;
23140;SDS011;11739;54.750;9.124;2022-10-16T05:42:39;5.43;;;2.08;;
23140;SDS011;11739;54.750;9.124;2022-10-16T05:45:06;9.10;;;2.75;;
23140;SDS011;11739;54.750;9.124;2022-10-16T05:47:33;5.40;;;2.50;;
23140;SDS011;11739;54.750;9.124;2022-10-16T05:49:59;8.52;;;2.53;;
23140;SDS011;11739;54.750;9.124;2022-10-16T05:52:26;6.07;;;2.30;;
23140;SDS011;11739;54.750;9.124;2022-10-16T05:54:53;10.25;;;2.20;;
23140;SDS011;11739;54.750;9.124;2022-10-16T05:57:19;5.45;;;2.10;;
23140;SDS011;11739;54.750;9.124;2022-10-16T05:59:46;6.13;;;2.58;;
23140;SDS011;11739;54.750;9.124;2022-10-16T06:02:13;7.47;;;2.42;;
23140;SDS011;11739;54.750;9.124;2022-10-16T06:04:39;8.15;;;2.22;;
23140;SDS011;11739;54.750;9.124;2022-10-16T06:07:06;7.88;;;2.45;;
23140;SDS011;11739;54.750;9.124;2022-10-16T06:09:33;6.88;;;2.58;;
23140;SDS011;11739;54.750;9.124;2022-10-16T06:12:00;9.27;;;2.65;;
23140;SDS011;11739;54.750;9.124;2022-10-16T06:14:26;8.25;;;2.45;;
23140;SDS011;11739;54.750;9.124;2022-10-16T06:16:53;6.00;;;2.50;;
23140;SDS011;11739;54.750;9.124;2022-10-16T06:19:19;8.88;;;2.35;;
23140;SDS011;11739;54.750;9.124;2022-10-16T06:21:46;8.10;;;2.10;;
23140;SDS011;11739;54.750;9.124;2022-10-16T06:24:12;8.10;;;2.20;;
23140;SDS011;11739;54.750;9.124;2022-10-16T06:26:39;6.47;;;2.08;;
23140;SDS011;11739;54.750;9.124;2022-10-16T06:29:05;6.47;;;2.28;;
23140;SDS011;11739;54.750;9.124;2022-10-16T06:31:32;8.27;;;2.20;;
23140;SDS011;11739;54.750;9.124;2022-10-16T06:33:59;8.10;;;2.08;;
23140;SDS011;11739;54.750;9.124;2022-10-16T06:36:26;6.90;;;2.30;;
23140;SDS011;11739;54.750;9.124;2022-10-16T06:38:53;6.93;;;2.13;;
23140;SDS011;11739;54.750;9.124;2022-10-16T06:41:20;8.45;;;2.72;;
23140;SDS011;11739;54.750;9.124;2022-10-16T06:43:48;5.57;;;2.17;;
23140;SDS011;11739;54.750;9.124;2022-10-16T06:46:16;6.45;;;2.60;;
23140;SDS011;11739;54.750;9.124;2022-10-16T06:48:45;5.38;;;1.90;;
23140;SDS011;11739;54.750;9.124;2022-10-16T06:51:12;6.10;;;2.13;;
23140;SDS011;11739;54.750;9.124;2022-10-16T06:53:44;5.32;;;1.98;;
23140;SDS011;11739;54.750;9.124;2022-10-16T06:56:28;9.18;;;2.08;;
23140;SDS011;11739;54.750;9.124;2022-10-16T06:58:57;10.23;;;2.70;;
23140;SDS011;11739;54.750;9.124;2022-10-16T07:01:24;7.18;;;2.28;;
23140;SDS011;11739;54.750;9.124;2022-10-16T07:03:51;6.07;;;1.80;;
23140;SDS011;11739;54.750;9.124;2022-10-16T07:06:19;7.10;;;1.95;;
23140;SDS011;11739;54.750;9.124;2022-10-16T07:08:47;6.68;;;2.20;;
23140;SDS011;11739;54.750;9.124;2022-10-16T07:11:14;5.35;;;1.83;;
23140;SDS011;11739;54.750;9.124;2022-10-16T07:13:43;5.43;;;2.20;;
23140;SDS011;11739;54.750;9.124;2022-10-16T07:16:12;10.65;;;2.30;;
23140;SDS011;11739;54.750;9.124;2022-10-16T07:18:41;8.30;;;2.05;;
23140;SDS011;11739;54.750;9.124;2022-10-16T07:21:10;6.97;;;2.00;;
23140;SDS011;11739;54.750;9.124;2022-10-16T07:23:38;6.88;;;2.10;;
23140;SDS011;11739;54.750;9.124;2022-10-16T07:26:05;8.85;;;2.22;;
23140;SDS011;11739;54.750;9.124;2022-10-16T07:28:32;10.10;;;2.30;;
23140;SDS011;11739;54.750;9.124;2022-10-16T07:31:00;8.73;;;2.40;;
23140;SDS011;11739;54.750;9.124;2022-10-16T07:33:27;9.25;;;2.08;;
23140;SDS011;11739;54.750;9.124;2022-10-16T07:35:54;6.32;;;2.00;;
23140;SDS011;11739;54.750;9.124;2022-10-16T07:38:21;12.52;;;2.50;;
23140;SDS011;11739;54.750;9.124;2022-10-16T07:40:48;11.60;;;2.42;;
23140;SDS011;11739;54.750;9.124;2022-10-16T07:43:22;4.20;;;1.70;;
23140;SDS011;11739;54.750;9.124;2022-10-16T07:45:49;8.73;;;2.20;;
23140;SDS011;11739;54.750;9.124;2022-10-16T07:48:16;7.55;;;2.30;;
23140;SDS011;11739;54.750;9.124;2022-10-16T07:50:43;6.00;;;2.03;;
23140;SDS011;11739;54.750;9.124;2022-10-16T07:53:10;8.75;;;2.30;;
23140;SDS011;11739;54.750;9.124;2022-10-16T07:55:37;6.90;;;2.17;;
23140;SDS011;11739;54.750;9.124;2022-10-16T07:58:03;6.18;;;2.03;;
23140;SDS011;11739;54.750;9.124;2022-10-16T08:00:30;5.40;;;2.35;;
23140;SDS011;11739;54.750;9.124;2022-10-16T08:02:57;5.75;;;1.67;;
23140;SDS011;11739;54.750;9.124;2022-10-16T08:05:26;6.18;;;2.03;;
23140;SDS011;11739;54.750;9.124;2022-10-16T08:07:56;7.22;;;2.25;;
23140;SDS011;11739;54.750;9.124;2022-10-16T08:10:24;6.82;;;2.25;;
23140;SDS011;11739;54.750;9.124;2022-10-16T08:12:52;8.77;;;2.45;;
23140;SDS011;11739;54.750;9.124;2022-10-16T08:15:19;6.18;;;2.00;;
23140;SDS011;11739;54.750;9.124;2022-10-16T08:17:57;5.68;;;2.03;;
23140;SDS011;11739;54.750;9.124;2022-10-16T08:20:33;6.07;;;2.08;;
23140;SDS011;11739;54.750;9.124;2022-10-16T08:23:00;7.15;;;1.85;;
23140;SDS011;11739;54.750;9.124;2022-10-16T08:25:27;5.32;;;1.90;;
23140;SDS011;11739;54.750;9.124;2022-10-16T08:27:54;7.32;;;2.10;;
23140;SDS011;11739;54.750;9.124;2022-10-16T08:30:21;4.63;;;1.70;;
23140;SDS011;11739;54.750;9.124;2022-10-16T08:32:49;6.07;;;1.95;;
23140;SDS011;11739;54.750;9.124;2022-10-16T08:35:16;8.27;;;2.22;;
23140;SDS011;11739;54.750;9.124;2022-10-16T08:37:42;7.78;;;2.15;;
23140;SDS011;11739;54.750;9.124;2022-10-16T08:40:15;10.40;;;2.33;;
23140;SDS011;11739;54.750;9.124;2022-10-16T08:45:26;7.10;;;2.25;;
23140;SDS011;11739;54.750;9.124;2022-10-16T08:48:25;12.20;;;2.20;;
23140;SDS011;11739;54.750;9.124;2022-10-16T08:50:56;6.05;;;2.10;;
23140;SDS011;11739;54.750;9.124;2022-10-16T08:56:13;5.32;;;2.28;;
23140;SDS011;11739;54.750;9.124;2022-10-16T08:58:40;8.55;;;2.50;;
23140;SDS011;11739;54.750;9.124;2022-10-16T09:01:12;9.45;;;2.28;;
23140;SDS011;11739;54.750;9.124;2022-10-16T09:06:28;7.28;;;2.00;;
23140;SDS011;11739;54.750;9.124;2022-10-16T09:09:08;8.20;;;2.28;;
23140;SDS011;11739;54.750;9.124;2022-10-16T09:11:48;9.13;;;2.75;;
23140;SDS011;11739;54.750;9.124;2022-10-16T09:14:25;6.18;;;2.30;;
23140;SDS011;11739;54.750;9.124;2022-10-16T09:17:20;7.78;;;2.10;;
23140;SDS011;11739;54.750;9.124;2022-10-16T09:20:03;6.30;;;2.10;;
23140;SDS011;11739;54.750;9.124;2022-10-16T09:22:53;6.10;;;2.03;;
23140;SDS011;11739;54.750;9.124;2022-10-16T09:25:26;14.45;;;2.80;;
23140;SDS011;11739;54.750;9.124;2022-10-16T09:27:53;9.35;;;2.47;;
23140;SDS011;11739;54.750;9.124;2022-10-16T09:30:20;6.68;;;2.30;;
23140;SDS011;11739;54.750;9.124;2022-10-16T09:32:48;10.88;;;2.80;;
23140;SDS011;11739;54.750;9.124;2022-10-16T09:35:17;7.38;;;2.33;;
23140;SDS011;11739;54.750;9.124;2022-10-16T09:37:47;8.43;;;2.67;;
23140;SDS011;11739;54.750;9.124;2022-10-16T09:40:33;5.35;;;2.28;;
23140;SDS011;11739;54.750;9.124;2022-10-16T09:43:16;10.68;;;2.42;;
23140;SDS011;11739;54.750;9.124;2022-10-16T09:45:54;7.43;;;2.75;;
23140;SDS011;11739;54.750;9.124;2022-10-16T09:48:39;9.65;;;2.55;;
23140;SDS011;11739;54.750;9.124;2022-10-16T09:51:33;8.00;;;2.70;;
23140;SDS011;11739;54.750;9.124;2022-10-16T09:56:35;11.27;;;3.08;;
23140;SDS011;11739;54.750;9.124;2022-10-16T09:59:08;10.55;;;3.05;;
23140;SDS011;11739;54.750;9.124;2022-10-16T10:01:38;8.75;;;3.40;;
23140;SDS011;11739;54.750;9.124;2022-10-16T10:04:06;11.90;;;3.38;;
23140;SDS011;11739;54.750;9.124;2022-10-16T10:06:34;10.80;;;3.22;;
23140;SDS011;11739;54.750;9.124;2022-10-16T10:09:05;9.18;;;2.70;;
23140;SDS011;11739;54.750;9.124;2022-10-16T10:14:19;7.85;;;2.95;;
23140;SDS011;11739;54.750;9.124;2022-10-16T10:16:46;7.05;;;2.67;;
23140;SDS011;11739;54.750;9.124;2022-10-16T10:19:23;12.82;;;3.42;;
23140;SDS011;11739;54.750;9.124;2022-10-16T10:21:55;8.30;;;2.85;;
23140;SDS011;11739;54.750;9.124;2022-10-16T10:24:22;12.73;;;3.83;;
23140;SDS011;11739;54.750;9.124;2022-10-16T10:26:57;9.52;;;3.20;;
23140;SDS011;11739;54.750;9.124;2022-10-16T10:32:27;9.30;;;2.78;;
23140;SDS011;11739;54.750;9.124;2022-10-16T10:40:43;10.23;;;3.17;;
23140;SDS011;11739;54.750;9.124;2022-10-16T10:46:04;9.57;;;3.15;;
23140;SDS011;11739;54.750;9.124;2022-10-16T10:54:20;9.65;;;2.88;;
23140;SDS011;11739;54.750;9.124;2022-10-16T11:02:45;8.20;;;2.53;;
23140;SDS011;11739;54.750;9.124;2022-10-16T11:05:23;9.75;;;2.72;;
23140;SDS011;11739;54.750;9.124;2022-10-16T11:08:39;12.00;;;3.10;;
23140;SDS011;11739;54.750;9.124;2022-10-16T11:10:50;11.70;;;2.95;;
23140;SDS011;11739;54.750;9.124;2022-10-16T11:13:31;12.10;;;3.22;;
23140;SDS011;11739;54.750;9.124;2022-10-16T11:16:02;11.63;;;2.90;;
23140;SDS011;11739;54.750;9.124;2022-10-16T11:18:39;11.10;;;2.88;;
23140;SDS011;11739;54.750;9.124;2022-10-16T11:21:13;14.27;;;2.97;;
23140;SDS011;11739;54.750;9.124;2022-10-16T11:26:33;13.43;;;3.30;;
23140;SDS011;11739;54.750;9.124;2022-10-16T11:29:01;13.38;;;3.25;;
23140;SDS011;11739;54.750;9.124;2022-10-16T11:31:40;14.05;;;2.90;;
23140;SDS011;11739;54.750;9.124;2022-10-16T11:37:10;8.70;;;2.70;;
23140;SDS011;11739;54.750;9.124;2022-10-16T11:39:40;12.98;;;2.78;;
23140;SDS011;11739;54.750;9.124;2022-10-16T11:44:50;9.65;;;2.90;;
23140;SDS011;11739;54.750;9.124;2022-10-16T11:53:35;14.52;;;3.58;;
23140;SDS011;11739;54.750;9.124;2022-10-16T11:56:25;10.27;;;3.53;;
23140;SDS011;11739;54.750;9.124;2022-10-16T11:59:00;14.65;;;3.72;;
23140;SDS011;11739;54.750;9.124;2022-10-16T12:01:44;21.45;;;4.25;;
23140;SDS011;11739;54.750;9.124;2022-10-16T12:06:48;11.13;;;3.55;;
23140;SDS011;11739;54.750;9.124;2022-10-16T12:11:51;12.77;;;3.60;;
23140;SDS011;11739;54.750;9.124;2022-10-16T12:14:19;11.45;;;3.63;;
23140;SDS011;11739;54.750;9.124;2022-10-16T12:19:19;13.38;;;3.95;;
23140;SDS011;11739;54.750;9.124;2022-10-16T12:21:46;17.05;;;3.90;;
23140;SDS011;11739;54.750;9.124;2022-10-16T12:27:04;16.00;;;3.78;;
23140;SDS011;11739;54.750;9.124;2022-10-16T12:29:37;15.57;;;3.70;;
23140;SDS011;11739;54.750;9.124;2022-10-16T12:32:05;18.40;;;3.75;;
23140;SDS011;11739;54.750;9.124;2022-10-16T12:35:21;11.65;;;3.50;;
23140;SDS011;11739;54.750;9.124;2022-10-16T12:37:53;17.95;;;4.18;;
23140;SDS011;11739;54.750;9.124;2022-10-16T12:40:27;17.38;;;4.15;;
23140;SDS011;11739;54.750;9.124;2022-10-16T12:42:55;15.48;;;3.80;;
23140;SDS011;11739;54.750;9.124;2022-10-16T12:45:31;16.20;;;4.13;;
23140;SDS011;11739;54.750;9.124;2022-10-16T12:48:00;14.48;;;4.25;;
23140;SDS011;11739;54.750;9.124;2022-10-16T12:50:36;16.98;;;4.32;;
23140;SDS011;11739;54.750;9.124;2022-10-16T12:53:17;17.15;;;3.95;;
23140;SDS011;11739;54.750;9.124;2022-10-16T12:55:53;18.23;;;4.47;;
23140;SDS011;11739;54.750;9.124;2022-10-16T12:58:36;15.43;;;4.30;;
23140;SDS011;11739;54.750;9.124;2022-10-16T13:07:03;13.13;;;3.85;;
23140;SDS011;11739;54.750;9.124;2022-10-16T13:09:51;17.08;;;4.05;;
23140;SDS011;11739;54.750;9.124;2022-10-16T13:20:50;15.40;;;4.13;;
23140;SDS011;11739;54.750;9.124;2022-10-16T13:29:04;14.95;;;3.85;;
23140;SDS011;11739;54.750;9.124;2022-10-16T13:31:33;14.90;;;4.00;;
23140;SDS011;11739;54.750;9.124;2022-10-16T13:34:00;17.27;;;3.58;;
23140;SDS011;11739;54.750;9.124;2022-10-16T13:36:34;13.40;;;3.50;;
23140;SDS011;11739;54.750;9.124;2022-10-16T13:39:12;14.48;;;3.40;;
23140;SDS011;11739;54.750;9.124;2022-10-16T13:41:40;13.73;;;3.60;;
23140;SDS011;11739;54.750;9.124;2022-10-16T13:44:18;16.88;;;4.18;;
23140;SDS011;11739;54.750;9.124;2022-10-16T13:46:45;15.57;;;3.88;;
23140;SDS011;11739;54.750;9.124;2022-10-16T13:49:14;14.77;;;4.03;;
23140;SDS011;11739;54.750;9.124;2022-10-16T13:51:47;16.60;;;4.78;;
23140;SDS011;11739;54.750;9.124;2022-10-16T13:54:20;13.20;;;3.80;;
23140;SDS011;11739;54.750;9.124;2022-10-16T13:56:47;18.15;;;3.90;;
23140;SDS011;11739;54.750;9.124;2022-10-16T13:59:35;15.45;;;4.00;;
23140;SDS011;11739;54.750;9.124;2022-10-16T14:02:26;14.20;;;3.67;;
23140;SDS011;11739;54.750;9.124;2022-10-16T14:04:53;12.95;;;3.47;;
23140;SDS011;11739;54.750;9.124;2022-10-16T14:07:24;16.10;;;3.83;;
23140;SDS011;11739;54.750;9.124;2022-10-16T14:09:53;14.35;;;3.88;;
23140;SDS011;11739;54.750;9.124;2022-10-16T14:12:24;11.68;;;3.30;;
23140;SDS011;11739;54.750;9.124;2022-10-16T14:14:54;12.95;;;3.58;;
23140;SDS011;11739;54.750;9.124;2022-10-16T14:17:27;12.77;;;3.30;;
23140;SDS011;11739;54.750;9.124;2022-10-16T14:19:56;16.10;;;4.25;;
23140;SDS011;11739;54.750;9.124;2022-10-16T14:22:33;16.77;;;3.95;;
23140;SDS011;11739;54.750;9.124;2022-10-16T14:36:00;15.20;;;3.45;;
23140;SDS011;11739;54.750;9.124;2022-10-16T14:38:36;15.95;;;3.90;;
23140;SDS011;11739;54.750;9.124;2022-10-16T14:41:04;14.60;;;3.63;;
23140;SDS011;11739;54.750;9.124;2022-10-16T14:43:41;13.25;;;3.42;;
23140;SDS011;11739;54.750;9.124;2022-10-16T14:46:14;15.20;;;3.85;;
23140;SDS011;11739;54.750;9.124;2022-10-16T14:48:43;16.65;;;3.78;;
23140;SDS011;11739;54.750;9.124;2022-10-16T14:51:17;14.25;;;3.60;;
23140;SDS011;11739;54.750;9.124;2022-10-16T14:53:44;11.75;;;3.10;;
23140;SDS011;11739;54.750;9.124;2022-10-16T14:56:16;15.23;;;3.83;;
23140;SDS011;11739;54.750;9.124;2022-10-16T14:58:44;15.20;;;3.28;;
23140;SDS011;11739;54.750;9.124;2022-10-16T15:01:11;14.32;;;3.67;;
23140;SDS011;11739;54.750;9.124;2022-10-16T15:03:37;13.50;;;3.35;;
23140;SDS011;11739;54.750;9.124;2022-10-16T15:06:08;11.75;;;3.42;;
23140;SDS011;11739;54.750;9.124;2022-10-16T15:08:37;16.73;;;3.50;;
23140;SDS011;11739;54.750;9.124;2022-10-16T15:11:04;24.95;;;4.57;;
23140;SDS011;11739;54.750;9.124;2022-10-16T15:13:30;14.90;;;3.30;;
23140;SDS011;11739;54.750;9.124;2022-10-16T15:15:57;15.18;;;3.60;;
23140;SDS011;11739;54.750;9.124;2022-10-16T15:18:24;12.32;;;3.53;;
23140;SDS011;11739;54.750;9.124;2022-10-16T15:20:51;14.27;;;3.72;;
23140;SDS011;11739;54.750;9.124;2022-10-16T15:23:18;13.93;;;3.35;;
23140;SDS011;11739;54.750;9.124;2022-10-16T15:25:48;21.23;;;3.83;;
23140;SDS011;11739;54.750;9.124;2022-10-16T15:28:18;16.42;;;3.55;;
23140;SDS011;11739;54.750;9.124;2022-10-16T15:30:46;21.00;;;4.10;;
23140;SDS011;11739;54.750;9.124;2022-10-16T15:33:14;18.33;;;3.97;;
23140;SDS011;11739;54.750;9.124;2022-10-16T15:35:42;20.17;;;3.85;;
23140;SDS011;11739;54.750;9.124;2022-10-16T15:38:12;17.33;;;4.25;;
23140;SDS011;11739;54.750;9.124;2022-10-16T15:40:39;19.23;;;3.83;;
23140;SDS011;11739;54.750;9.124;2022-10-16T15:43:06;13.85;;;3.22;;
23140;SDS011;11739;54.750;9.124;2022-10-16T15:45:32;15.82;;;3.40;;
23140;SDS011;11739;54.750;9.124;2022-10-16T15:47:59;14.20;;;3.33;;
23140;SDS011;11739;54.750;9.124;2022-10-16T15:50:25;14.57;;;3.42;;
23140;SDS011;11739;54.750;9.124;2022-10-16T15:52:52;15.30;;;3.25;;
23140;SDS011;11739;54.750;9.124;2022-10-16T15:55:18;19.23;;;3.55;;
23140;SDS011;11739;54.750;9.124;2022-10-16T15:57:45;14.98;;;3.42;;
23140;SDS011;11739;54.750;9.124;2022-10-16T16:00:13;11.07;;;3.00;;
23140;SDS011;11739;54.750;9.124;2022-10-16T16:02:41;13.13;;;2.65;;
23140;SDS011;11739;54.750;9.124;2022-10-16T16:05:09;12.07;;;3.20;;
23140;SDS011;11739;54.750;9.124;2022-10-16T16:07:37;13.35;;;3.50;;
23140;SDS011;11739;54.750;9.124;2022-10-16T16:10:05;14.32;;;3.15;;
23140;SDS011;11739;54.750;9.124;2022-10-16T16:12:33;11.68;;;3.03;;
23140;SDS011;11739;54.750;9.124;2022-10-16T16:14:59;14.68;;;2.88;;
23140;SDS011;11739;54.750;9.124;2022-10-16T16:17:31;13.05;;;3.15;;
23140;SDS011;11739;54.750;9.124;2022-10-16T16:19:58;12.07;;;3.38;;
23140;SDS011;11739;54.750;9.124;2022-10-16T16:22:24;14.60;;;4.05;;
23140;SDS011;11739;54.750;9.124;2022-10-16T16:24:51;14.73;;;3.25;;
23140;SDS011;11739;54.750;9.124;2022-10-16T16:27:18;13.27;;;3.20;;
23140;SDS011;11739;54.750;9.124;2022-10-16T16:29:46;9.73;;;3.50;;
23140;SDS011;11739;54.750;9.124;2022-10-16T16:32:13;14.90;;;3.05;;
23140;SDS011;11739;54.750;9.124;2022-10-16T16:34:42;14.52;;;3.30;;
23140;SDS011;11739;54.750;9.124;2022-10-16T16:37:20;11.48;;;3.20;;
23140;SDS011;11739;54.750;9.124;2022-10-16T16:39:55;19.42;;;4.03;;
23140;SDS011;11739;54.750;9.124;2022-10-16T16:42:34;10.13;;;3.42;;